createdAt,value
2023-03-12T00:01:52.465Z,76.5
2023-03-12T00:07:42.817Z,76
2023-03-12T00:13:33.857Z,75.8
2023-03-12T00:19:24.523Z,75.7
2023-03-12T00:25:15.196Z,75.9
2023-03-12T00:31:04.667Z,76.2
2023-03-12T00:36:56.094Z,75.6
2023-03-12T00:42:46.421Z,75.9
2023-03-12T00:48:36.026Z,75.7
2023-03-12T00:54:26.964Z,75.1
2023-03-12T01:00:17.564Z,75.2
2023-03-12T01:06:06.444Z,74.9
2023-03-12T01:11:56.621Z,75.3
2023-03-12T01:17:47.306Z,75.4
2023-03-12T01:23:37.764Z,75.5
2023-03-12T01:29:30.185Z,75.5
2023-03-12T01:35:20.782Z,75.1
2023-03-12T01:41:12.041Z,75.3
2023-03-12T01:47:02.878Z,75.3
2023-03-12T01:52:52.908Z,75.2
2023-03-12T01:58:43.668Z,75.1
2023-03-12T02:04:33.751Z,75.1
2023-03-12T02:10:24.283Z,75.8
2023-03-12T02:16:14.839Z,75.2
2023-03-12T02:22:05.575Z,75.3
2023-03-12T02:27:56.655Z,75
2023-03-12T02:33:47.281Z,75.5
2023-03-12T02:39:38.040Z,75.6
2023-03-12T02:45:29.363Z,75.5
2023-03-12T02:51:19.266Z,75.4
2023-03-12T02:57:10.857Z,74.8
2023-03-12T03:03:01.653Z,75
2023-03-12T03:08:52.631Z,74.8
2023-03-12T03:14:43.424Z,74
2023-03-12T03:20:33.612Z,74.4
2023-03-12T03:26:24.302Z,74.2
2023-03-12T03:32:15.130Z,74.2
2023-03-12T03:38:05.538Z,74.6
2023-03-12T03:43:56.639Z,74.1
2023-03-12T03:49:47.859Z,74
2023-03-12T03:55:38.310Z,73.8
2023-03-12T04:01:30.029Z,74.9
2023-03-12T04:07:20.193Z,74.5
2023-03-12T04:13:10.546Z,75
2023-03-12T04:19:01.338Z,75.5
2023-03-12T04:24:52.836Z,74.8
2023-03-12T04:30:43.200Z,75.4
2023-03-12T04:36:34.198Z,76
2023-03-12T04:42:24.427Z,77.4
2023-03-12T04:48:14.638Z,78.5
2023-03-12T04:54:05.454Z,78.9
2023-03-12T04:59:56.663Z,80
2023-03-12T05:05:46.464Z,80.8
2023-03-12T05:11:39.533Z,83.4
2023-03-12T05:17:29.849Z,84.7
2023-03-12T05:23:20.354Z,87.4
2023-03-12T05:29:11.089Z,89.4
2023-03-12T05:35:01.646Z,89.8
2023-03-12T05:40:52.300Z,91.1
2023-03-12T05:46:41.255Z,92
2023-03-12T05:52:31.092Z,92
2023-03-12T05:58:21.807Z,92.2
2023-03-12T06:04:12.207Z,93.4
2023-03-12T06:10:14.968Z,93.9
2023-03-12T06:16:19.474Z,95
2023-03-12T06:22:10.377Z,94.4
2023-03-12T06:27:59.449Z,94.8
2023-03-12T06:33:52.086Z,94.6
2023-03-12T06:39:47.977Z,94.2
2023-03-12T06:45:36.561Z,93.9
2023-03-12T06:51:29.875Z,94.1
2023-03-12T06:57:18.577Z,95
2023-03-12T07:03:06.800Z,95.3
2023-03-12T07:08:55.538Z,96.2
2023-03-12T07:14:48.515Z,96.7
2023-03-12T07:20:37.232Z,98
2023-03-12T07:26:26.810Z,98.4
2023-03-12T07:32:17.196Z,98.3
2023-03-12T07:38:07.476Z,97.8
2023-03-12T07:43:57.414Z,97.8
2023-03-12T07:49:49.701Z,98.2
2023-03-12T07:55:43.499Z,98.5
2023-03-12T08:01:36.286Z,98.9
2023-03-12T08:07:36.044Z,99.2
2023-03-12T08:13:26.089Z,99
2023-03-12T08:19:17.813Z,99.2
2023-03-12T08:25:09.497Z,99.3
2023-03-12T08:30:59.513Z,99.1
2023-03-12T08:36:56.254Z,100
2023-03-12T08:42:43.767Z,100
2023-03-12T08:48:32.959Z,100
2023-03-12T08:54:24.820Z,100
2023-03-12T09:00:21.387Z,100
2023-03-12T09:06:13.656Z,100
2023-03-12T09:12:07.687Z,100
2023-03-12T09:17:59.206Z,100
2023-03-12T09:24:00.115Z,100
2023-03-12T09:30:02.267Z,100
2023-03-12T09:35:55.266Z,100
2023-03-12T09:41:45.960Z,100
2023-03-12T09:47:40.201Z,100
2023-03-12T09:53:31.328Z,100
2023-03-12T09:59:22.401Z,100
2023-03-12T10:05:11.994Z,100
2023-03-12T10:11:03.623Z,100
2023-03-12T10:16:53.408Z,100
2023-03-12T10:22:47.354Z,100
2023-03-12T10:28:45.668Z,100
2023-03-12T10:34:39.544Z,100
2023-03-12T10:40:39.536Z,100
2023-03-12T10:46:27.584Z,100
2023-03-12T10:52:26.710Z,100
2023-03-12T11:04:53.529Z,100
2023-03-12T11:10:50.980Z,100
2023-03-12T11:16:40.739Z,100
2023-03-12T11:22:58.175Z,100
2023-03-12T11:29:04.760Z,100
2023-03-12T11:34:57.970Z,100
2023-03-12T11:40:50.018Z,100
2023-03-12T11:46:42.986Z,100
2023-03-12T11:52:34.102Z,100
2023-03-12T11:58:26.197Z,100
2023-03-12T12:04:15.778Z,100
2023-03-12T12:10:07.423Z,100
2023-03-12T12:15:59.091Z,100
2023-03-12T12:21:50.013Z,100
2023-03-12T12:27:40.415Z,100
2023-03-12T12:33:30.678Z,100
2023-03-12T12:39:23.444Z,99.3
2023-03-12T12:45:13.808Z,97.7
2023-03-12T12:51:04.356Z,96.2
2023-03-12T12:58:07.020Z,95.3
2023-03-12T13:03:57.710Z,94
2023-03-12T13:09:51.133Z,93.2
2023-03-12T13:15:42.043Z,90.5
2023-03-12T13:21:34.078Z,90.5
2023-03-12T13:27:26.428Z,88.6
2023-03-12T13:33:18.620Z,88.1
2023-03-12T13:39:13.119Z,88.7
2023-03-12T13:45:05.314Z,91.4
2023-03-12T13:50:56.071Z,92.7
2023-03-12T13:56:46.090Z,93.3
2023-03-12T14:02:38.135Z,95.2
2023-03-12T14:08:27.652Z,95.6
2023-03-12T14:14:18.122Z,96
2023-03-12T14:20:11.060Z,93.9
2023-03-12T14:26:03.538Z,91.8
2023-03-12T14:31:53.563Z,90.7
2023-03-12T14:37:43.109Z,88.5
2023-03-12T14:43:32.994Z,88.1
2023-03-12T14:49:23.652Z,87.3
2023-03-12T14:55:13.934Z,86.8
2023-03-12T15:01:03.984Z,86.1
2023-03-12T15:06:54.253Z,85.1
2023-03-12T15:12:43.618Z,80.7
2023-03-12T15:18:34.010Z,80
2023-03-12T15:24:28.973Z,81
2023-03-12T15:30:18.209Z,80.6
2023-03-12T15:36:08.758Z,81.3
2023-03-12T15:41:58.991Z,81.6
2023-03-12T15:47:48.236Z,81.6
2023-03-12T15:53:38.200Z,81.5
2023-03-12T15:59:29.337Z,82
2023-03-12T16:05:20.732Z,82.9
2023-03-12T16:11:12.197Z,82.8
2023-03-12T16:17:04.542Z,82.9
2023-03-12T16:22:59.101Z,82.8
2023-03-12T16:28:49.242Z,81.8
2023-03-12T16:34:40.457Z,83.6
2023-03-12T16:40:35.274Z,84.2
2023-03-12T16:46:25.178Z,83.9
2023-03-12T16:52:16.729Z,84.5
2023-03-12T16:58:07.757Z,83.6
2023-03-12T17:03:59.170Z,83.3
2023-03-12T17:09:50.371Z,81.8
2023-03-12T17:15:40.963Z,81.9
2023-03-12T17:21:32.436Z,81.1
2023-03-12T17:27:23.441Z,81.2
2023-03-12T17:33:14.778Z,80.1
2023-03-12T17:39:05.636Z,81.4
2023-03-12T17:44:56.528Z,81
2023-03-12T17:50:47.370Z,81.8
2023-03-12T17:56:39.646Z,81.5
2023-03-12T18:02:30.861Z,80.6
2023-03-12T18:08:21.702Z,80.8
2023-03-12T18:14:12.623Z,80.4
2023-03-12T18:20:03.787Z,79.7
2023-03-12T18:25:55.689Z,80.4
2023-03-12T18:31:47.063Z,80.8
2023-03-12T18:37:38.125Z,80.7
2023-03-12T18:43:29.207Z,80.1
2023-03-12T18:49:19.823Z,79.4
2023-03-12T18:55:11.059Z,80.7
2023-03-12T19:01:02.181Z,80.5
2023-03-12T19:06:53.650Z,80.8
2023-03-12T19:12:54.841Z,80.7
2023-03-12T19:18:45.112Z,79.6
2023-03-12T19:24:36.316Z,79.7
2023-03-12T19:30:26.799Z,80.4
2023-03-12T19:36:17.783Z,80.6
2023-03-12T19:42:08.521Z,80.4
2023-03-12T19:47:59.192Z,81.3
2023-03-12T19:53:50.339Z,81.7
2023-03-12T19:59:40.517Z,81.5
2023-03-12T20:05:31.638Z,81.8
2023-03-12T20:11:23.567Z,82.3
2023-03-12T20:17:14.550Z,82.9
2023-03-12T20:23:05.814Z,83.5
2023-03-12T20:28:56.667Z,83.6
2023-03-12T20:34:47.253Z,83.4
2023-03-12T20:40:38.355Z,83.7
2023-03-12T20:46:29.370Z,84.3
2023-03-12T20:52:19.388Z,84.3
2023-03-12T20:58:11.383Z,84.3
2023-03-12T21:04:02.453Z,84.7
2023-03-12T21:09:53.846Z,85
2023-03-12T21:15:43.871Z,85.4
2023-03-12T21:21:34.760Z,85.7
2023-03-12T21:27:25.125Z,86.4
2023-03-12T21:33:29.381Z,86.7
2023-03-12T21:39:19.861Z,86.8
2023-03-12T21:45:10.502Z,86.9
2023-03-12T21:51:01.468Z,87
2023-03-12T21:56:53.723Z,87
2023-03-12T22:02:46.582Z,86.7
2023-03-12T22:08:36.971Z,86.5
2023-03-12T22:14:28.848Z,86.8
2023-03-12T22:20:19.759Z,87.1
2023-03-12T22:26:11.255Z,87.4
2023-03-12T22:32:02.010Z,87.2
2023-03-12T22:37:53.039Z,87.6
2023-03-12T22:43:44.610Z,87.7
2023-03-12T22:49:35.253Z,87.8
2023-03-12T22:55:26.458Z,87.6
2023-03-12T23:01:17.541Z,87.9
2023-03-12T23:07:18.276Z,88.4
2023-03-12T23:13:08.742Z,88.4
2023-03-12T23:19:01.096Z,88.8
2023-03-12T23:24:53.202Z,89.3
2023-03-12T23:30:43.936Z,89.2
2023-03-12T23:36:35.543Z,89.4
2023-03-12T23:42:24.623Z,89.6
2023-03-12T23:48:15.395Z,90.4
2023-03-12T23:54:08.709Z,90.3
2023-03-12T23:59:59.890Z,90.2
